sensor_id;sensor_type;location;lat;lon;timestamp;P1;durP1;ratioP1;P2;durP2;ratioP2
9964;SDS011;5023;53.554;9.964;2023-04-25T00:02:10;5.07;;;4.33;;
9964;SDS011;5023;53.554;9.964;2023-04-25T00:07:13;7.97;;;4.77;;
9964;SDS011;5023;53.554;9.964;2023-04-25T00:12:15;10.57;;;4.47;;
9964;SDS011;5023;53.554;9.964;2023-04-25T00:17:17;11.80;;;4.83;;
9964;SDS011;5023;53.554;9.964;2023-04-25T00:22:20;12.57;;;4.53;;
9964;SDS011;5023;53.554;9.964;2023-04-25T00:27:22;14.73;;;4.90;;
9964;SDS011;5023;53.554;9.964;2023-04-25T00:32:24;12.33;;;4.50;;
9964;SDS011;5023;53.554;9.964;2023-04-25T00:37:28;17.13;;;4.63;;
9964;SDS011;5023;53.554;9.964;2023-04-25T00:42:30;15.40;;;5.33;;
9964;SDS011;5023;53.554;9.964;2023-04-25T00:47:32;14.80;;;4.80;;
9964;SDS011;5023;53.554;9.964;2023-04-25T00:52:36;17.57;;;4.23;;
9964;SDS011;5023;53.554;9.964;2023-04-25T00:57:40;17.23;;;4.80;;
9964;SDS011;5023;53.554;9.964;2023-04-25T01:02:43;19.53;;;4.67;;
9964;SDS011;5023;53.554;9.964;2023-04-25T01:07:47;18.03;;;5.63;;
9964;SDS011;5023;53.554;9.964;2023-04-25T01:12:49;14.10;;;5.33;;
9964;SDS011;5023;53.554;9.964;2023-04-25T01:17:51;13.03;;;4.53;;
9964;SDS011;5023;53.554;9.964;2023-04-25T01:22:56;13.60;;;4.43;;
9964;SDS011;5023;53.554;9.964;2023-04-25T01:27:58;20.03;;;5.03;;
9964;SDS011;5023;53.554;9.964;2023-04-25T01:33:00;14.40;;;4.13;;
9964;SDS011;5023;53.554;9.964;2023-04-25T01:38:05;13.10;;;4.40;;
9964;SDS011;5023;53.554;9.964;2023-04-25T01:43:08;15.93;;;4.83;;
9964;SDS011;5023;53.554;9.964;2023-04-25T01:48:11;15.53;;;4.93;;
9964;SDS011;5023;53.554;9.964;2023-04-25T01:53:16;16.73;;;5.20;;
9964;SDS011;5023;53.554;9.964;2023-04-25T01:58:17;17.63;;;4.67;;
9964;SDS011;5023;53.554;9.964;2023-04-25T02:03:20;15.43;;;4.60;;
9964;SDS011;5023;53.554;9.964;2023-04-25T02:08:23;15.00;;;5.10;;
9964;SDS011;5023;53.554;9.964;2023-04-25T02:13:26;22.87;;;5.23;;
9964;SDS011;5023;53.554;9.964;2023-04-25T02:18:28;17.13;;;4.83;;
9964;SDS011;5023;53.554;9.964;2023-04-25T02:23:31;13.37;;;5.07;;
9964;SDS011;5023;53.554;9.964;2023-04-25T02:28:33;17.50;;;5.27;;
9964;SDS011;5023;53.554;9.964;2023-04-25T02:33:35;16.77;;;4.60;;
9964;SDS011;5023;53.554;9.964;2023-04-25T02:38:38;21.67;;;5.13;;
9964;SDS011;5023;53.554;9.964;2023-04-25T02:43:40;18.43;;;4.37;;
9964;SDS011;5023;53.554;9.964;2023-04-25T02:48:42;16.40;;;4.67;;
9964;SDS011;5023;53.554;9.964;2023-04-25T02:53:46;15.33;;;4.37;;
9964;SDS011;5023;53.554;9.964;2023-04-25T02:58:48;14.10;;;4.10;;
9964;SDS011;5023;53.554;9.964;2023-04-25T03:03:50;14.30;;;4.63;;
9964;SDS011;5023;53.554;9.964;2023-04-25T03:08:53;12.87;;;4.70;;
9964;SDS011;5023;53.554;9.964;2023-04-25T03:13:55;15.20;;;4.20;;
9964;SDS011;5023;53.554;9.964;2023-04-25T03:18:57;15.10;;;3.63;;
9964;SDS011;5023;53.554;9.964;2023-04-25T03:24:02;15.07;;;4.83;;
9964;SDS011;5023;53.554;9.964;2023-04-25T03:29:05;12.90;;;3.77;;
9964;SDS011;5023;53.554;9.964;2023-04-25T03:34:06;14.83;;;4.37;;
9964;SDS011;5023;53.554;9.964;2023-04-25T03:39:10;12.77;;;4.20;;
9964;SDS011;5023;53.554;9.964;2023-04-25T03:44:11;12.90;;;3.90;;
9964;SDS011;5023;53.554;9.964;2023-04-25T03:49:14;9.67;;;3.70;;
9964;SDS011;5023;53.554;9.964;2023-04-25T03:54:18;11.30;;;4.20;;
9964;SDS011;5023;53.554;9.964;2023-04-25T03:59:20;12.20;;;3.70;;
9964;SDS011;5023;53.554;9.964;2023-04-25T04:04:22;13.97;;;3.80;;
9964;SDS011;5023;53.554;9.964;2023-04-25T04:09:25;8.53;;;3.13;;
9964;SDS011;5023;53.554;9.964;2023-04-25T04:14:28;8.87;;;3.60;;
9964;SDS011;5023;53.554;9.964;2023-04-25T04:19:30;10.70;;;3.50;;
9964;SDS011;5023;53.554;9.964;2023-04-25T04:24:50;13.10;;;3.70;;
9964;SDS011;5023;53.554;9.964;2023-04-25T04:29:52;8.20;;;2.90;;
9964;SDS011;5023;53.554;9.964;2023-04-25T04:34:53;12.60;;;3.83;;
9964;SDS011;5023;53.554;9.964;2023-04-25T04:39:57;12.53;;;3.47;;
9964;SDS011;5023;53.554;9.964;2023-04-25T04:44:59;12.63;;;3.83;;
9964;SDS011;5023;53.554;9.964;2023-04-25T04:50:01;17.23;;;3.70;;
9964;SDS011;5023;53.554;9.964;2023-04-25T04:55:07;11.37;;;3.57;;
9964;SDS011;5023;53.554;9.964;2023-04-25T05:00:10;10.70;;;3.70;;
9964;SDS011;5023;53.554;9.964;2023-04-25T05:05:13;12.20;;;3.53;;
9964;SDS011;5023;53.554;9.964;2023-04-25T05:10:16;10.83;;;3.63;;
9964;SDS011;5023;53.554;9.964;2023-04-25T05:15:18;13.23;;;3.80;;
9964;SDS011;5023;53.554;9.964;2023-04-25T05:20:20;8.93;;;3.20;;
9964;SDS011;5023;53.554;9.964;2023-04-25T05:25:23;12.47;;;3.90;;
9964;SDS011;5023;53.554;9.964;2023-04-25T05:30:25;13.17;;;3.80;;
9964;SDS011;5023;53.554;9.964;2023-04-25T05:35:27;14.97;;;3.60;;
9964;SDS011;5023;53.554;9.964;2023-04-25T05:40:30;13.30;;;3.50;;
9964;SDS011;5023;53.554;9.964;2023-04-25T05:45:33;14.97;;;3.83;;
9964;SDS011;5023;53.554;9.964;2023-04-25T05:50:34;8.00;;;2.97;;
9964;SDS011;5023;53.554;9.964;2023-04-25T05:55:38;9.87;;;3.47;;
9964;SDS011;5023;53.554;9.964;2023-04-25T06:00:40;11.87;;;3.80;;
9964;SDS011;5023;53.554;9.964;2023-04-25T06:05:42;7.60;;;3.37;;
9964;SDS011;5023;53.554;9.964;2023-04-25T06:10:46;11.90;;;3.13;;
9964;SDS011;5023;53.554;9.964;2023-04-25T06:15:48;7.73;;;3.30;;
9964;SDS011;5023;53.554;9.964;2023-04-25T06:20:49;9.07;;;3.50;;
9964;SDS011;5023;53.554;9.964;2023-04-25T06:25:53;10.80;;;3.60;;
9964;SDS011;5023;53.554;9.964;2023-04-25T06:30:55;10.87;;;3.83;;
9964;SDS011;5023;53.554;9.964;2023-04-25T06:35:57;15.70;;;4.57;;
9964;SDS011;5023;53.554;9.964;2023-04-25T06:41:00;10.07;;;3.83;;
9964;SDS011;5023;53.554;9.964;2023-04-25T06:46:02;10.30;;;3.40;;
9964;SDS011;5023;53.554;9.964;2023-04-25T06:51:04;10.33;;;3.40;;
9964;SDS011;5023;53.554;9.964;2023-04-25T06:56:07;8.30;;;2.63;;
9964;SDS011;5023;53.554;9.964;2023-04-25T07:01:10;8.33;;;3.10;;
9964;SDS011;5023;53.554;9.964;2023-04-25T07:06:12;12.13;;;4.60;;
9964;SDS011;5023;53.554;9.964;2023-04-25T07:11:15;8.13;;;2.67;;
9964;SDS011;5023;53.554;9.964;2023-04-25T07:16:17;8.33;;;2.67;;
9964;SDS011;5023;53.554;9.964;2023-04-25T07:21:19;8.70;;;2.87;;
9964;SDS011;5023;53.554;9.964;2023-04-25T07:26:22;9.97;;;2.90;;
9964;SDS011;5023;53.554;9.964;2023-04-25T07:31:24;11.33;;;3.20;;
9964;SDS011;5023;53.554;9.964;2023-04-25T07:36:26;8.37;;;3.40;;
9964;SDS011;5023;53.554;9.964;2023-04-25T07:41:30;12.33;;;3.07;;
9964;SDS011;5023;53.554;9.964;2023-04-25T07:46:32;8.47;;;2.97;;
9964;SDS011;5023;53.554;9.964;2023-04-25T07:51:34;6.40;;;2.40;;
9964;SDS011;5023;53.554;9.964;2023-04-25T07:56:37;7.23;;;2.40;;
9964;SDS011;5023;53.554;9.964;2023-04-25T08:01:39;12.00;;;2.43;;
9964;SDS011;5023;53.554;9.964;2023-04-25T08:06:41;6.70;;;2.47;;
9964;SDS011;5023;53.554;9.964;2023-04-25T08:11:44;6.47;;;2.53;;
9964;SDS011;5023;53.554;9.964;2023-04-25T08:16:46;18.13;;;10.23;;
9964;SDS011;5023;53.554;9.964;2023-04-25T08:21:48;7.37;;;2.90;;
9964;SDS011;5023;53.554;9.964;2023-04-25T08:26:53;10.60;;;2.63;;
9964;SDS011;5023;53.554;9.964;2023-04-25T08:31:55;7.43;;;2.30;;
9964;SDS011;5023;53.554;9.964;2023-04-25T08:36:57;5.67;;;2.30;;
9964;SDS011;5023;53.554;9.964;2023-04-25T08:42:00;6.67;;;2.47;;
9964;SDS011;5023;53.554;9.964;2023-04-25T08:47:04;17.57;;;7.83;;
9964;SDS011;5023;53.554;9.964;2023-04-25T08:52:06;8.17;;;2.87;;
9964;SDS011;5023;53.554;9.964;2023-04-25T08:57:12;4.97;;;2.10;;
9964;SDS011;5023;53.554;9.964;2023-04-25T09:02:16;8.40;;;2.47;;
9964;SDS011;5023;53.554;9.964;2023-04-25T09:07:20;6.13;;;2.00;;
9964;SDS011;5023;53.554;9.964;2023-04-25T09:12:24;3.07;;;2.00;;
9964;SDS011;5023;53.554;9.964;2023-04-25T09:17:27;7.60;;;2.00;;
9964;SDS011;5023;53.554;9.964;2023-04-25T09:22:29;6.07;;;2.40;;
9964;SDS011;5023;53.554;9.964;2023-04-25T09:27:33;5.07;;;1.90;;
9964;SDS011;5023;53.554;9.964;2023-04-25T09:32:35;7.13;;;2.40;;
9964;SDS011;5023;53.554;9.964;2023-04-25T09:37:37;6.93;;;2.57;;
9964;SDS011;5023;53.554;9.964;2023-04-25T09:42:42;7.47;;;2.53;;
9964;SDS011;5023;53.554;9.964;2023-04-25T09:47:44;10.67;;;2.47;;
9964;SDS011;5023;53.554;9.964;2023-04-25T09:52:46;5.10;;;1.90;;
9964;SDS011;5023;53.554;9.964;2023-04-25T09:58:06;5.00;;;2.00;;
9964;SDS011;5023;53.554;9.964;2023-04-25T10:03:10;5.57;;;2.90;;
9964;SDS011;5023;53.554;9.964;2023-04-25T10:08:13;6.13;;;2.10;;
9964;SDS011;5023;53.554;9.964;2023-04-25T10:13:17;7.70;;;2.40;;
9964;SDS011;5023;53.554;9.964;2023-04-25T10:18:21;7.27;;;2.80;;
9964;SDS011;5023;53.554;9.964;2023-04-25T10:23:23;2.97;;;1.70;;
9964;SDS011;5023;53.554;9.964;2023-04-25T10:28:27;6.63;;;2.47;;
9964;SDS011;5023;53.554;9.964;2023-04-25T10:33:30;4.60;;;1.90;;
9964;SDS011;5023;53.554;9.964;2023-04-25T10:38:35;4.43;;;2.13;;
9964;SDS011;5023;53.554;9.964;2023-04-25T10:43:39;8.20;;;2.47;;
9964;SDS011;5023;53.554;9.964;2023-04-25T10:48:46;4.63;;;2.03;;
9964;SDS011;5023;53.554;9.964;2023-04-25T10:53:59;5.90;;;2.17;;
9964;SDS011;5023;53.554;9.964;2023-04-25T10:59:10;9.27;;;2.00;;
9964;SDS011;5023;53.554;9.964;2023-04-25T11:04:21;5.47;;;2.47;;
9964;SDS011;5023;53.554;9.964;2023-04-25T11:09:23;6.63;;;2.63;;
9964;SDS011;5023;53.554;9.964;2023-04-25T11:14:27;7.90;;;2.20;;
9964;SDS011;5023;53.554;9.964;2023-04-25T11:19:29;5.33;;;2.13;;
9964;SDS011;5023;53.554;9.964;2023-04-25T11:24:32;10.53;;;2.40;;
9964;SDS011;5023;53.554;9.964;2023-04-25T11:29:37;7.20;;;2.13;;
9964;SDS011;5023;53.554;9.964;2023-04-25T11:34:39;5.20;;;2.07;;
9964;SDS011;5023;53.554;9.964;2023-04-25T11:39:44;4.97;;;1.90;;
9964;SDS011;5023;53.554;9.964;2023-04-25T11:44:48;2.63;;;1.73;;
9964;SDS011;5023;53.554;9.964;2023-04-25T11:49:52;5.60;;;2.17;;
9964;SDS011;5023;53.554;9.964;2023-04-25T11:54:54;3.80;;;1.60;;
9964;SDS011;5023;53.554;9.964;2023-04-25T12:00:05;4.40;;;1.50;;
9964;SDS011;5023;53.554;9.964;2023-04-25T12:05:11;5.00;;;1.90;;
9964;SDS011;5023;53.554;9.964;2023-04-25T12:10:15;3.70;;;1.83;;
9964;SDS011;5023;53.554;9.964;2023-04-25T12:15:23;5.13;;;2.13;;
9964;SDS011;5023;53.554;9.964;2023-04-25T12:20:26;5.90;;;1.80;;
9964;SDS011;5023;53.554;9.964;2023-04-25T12:25:35;10.17;;;5.60;;
9964;SDS011;5023;53.554;9.964;2023-04-25T12:30:58;3.87;;;1.97;;
9964;SDS011;5023;53.554;9.964;2023-04-25T12:36:02;6.50;;;3.80;;
9964;SDS011;5023;53.554;9.964;2023-04-25T12:41:08;6.43;;;1.77;;
9964;SDS011;5023;53.554;9.964;2023-04-25T12:46:11;5.53;;;1.60;;
9964;SDS011;5023;53.554;9.964;2023-04-25T12:51:14;4.67;;;1.90;;
9964;SDS011;5023;53.554;9.964;2023-04-25T12:56:15;5.80;;;2.10;;
9964;SDS011;5023;53.554;9.964;2023-04-25T13:01:19;5.20;;;2.30;;
9964;SDS011;5023;53.554;9.964;2023-04-25T13:06:21;5.83;;;2.13;;
9964;SDS011;5023;53.554;9.964;2023-04-25T13:11:24;7.50;;;2.60;;
9964;SDS011;5023;53.554;9.964;2023-04-25T13:16:27;5.50;;;2.90;;
9964;SDS011;5023;53.554;9.964;2023-04-25T13:21:29;6.43;;;2.43;;
9964;SDS011;5023;53.554;9.964;2023-04-25T13:26:32;5.10;;;1.87;;
9964;SDS011;5023;53.554;9.964;2023-04-25T13:31:35;26.83;;;20.43;;
9964;SDS011;5023;53.554;9.964;2023-04-25T13:36:37;4.63;;;2.70;;
9964;SDS011;5023;53.554;9.964;2023-04-25T13:41:39;6.73;;;2.37;;
9964;SDS011;5023;53.554;9.964;2023-04-25T13:46:42;4.73;;;2.20;;
9964;SDS011;5023;53.554;9.964;2023-04-25T13:51:46;5.07;;;2.73;;
9964;SDS011;5023;53.554;9.964;2023-04-25T13:56:48;3.70;;;1.77;;
9964;SDS011;5023;53.554;9.964;2023-04-25T14:01:52;7.70;;;5.90;;
9964;SDS011;5023;53.554;9.964;2023-04-25T14:06:54;6.57;;;2.23;;
9964;SDS011;5023;53.554;9.964;2023-04-25T14:11:56;3.77;;;2.23;;
9964;SDS011;5023;53.554;9.964;2023-04-25T14:16:59;7.13;;;2.77;;
9964;SDS011;5023;53.554;9.964;2023-04-25T14:22:01;8.17;;;2.80;;
9964;SDS011;5023;53.554;9.964;2023-04-25T14:27:06;8.47;;;2.30;;
9964;SDS011;5023;53.554;9.964;2023-04-25T14:32:09;4.80;;;2.33;;
9964;SDS011;5023;53.554;9.964;2023-04-25T14:37:11;5.07;;;2.67;;
9964;SDS011;5023;53.554;9.964;2023-04-25T14:42:14;7.93;;;2.70;;
9964;SDS011;5023;53.554;9.964;2023-04-25T14:47:18;3.93;;;2.07;;
9964;SDS011;5023;53.554;9.964;2023-04-25T14:52:20;4.77;;;2.17;;
9964;SDS011;5023;53.554;9.964;2023-04-25T14:57:22;11.17;;;6.00;;
9964;SDS011;5023;53.554;9.964;2023-04-25T15:02:26;8.57;;;2.20;;
9964;SDS011;5023;53.554;9.964;2023-04-25T15:07:29;5.60;;;1.97;;
9964;SDS011;5023;53.554;9.964;2023-04-25T15:12:32;6.90;;;2.50;;
9964;SDS011;5023;53.554;9.964;2023-04-25T15:17:35;5.43;;;2.50;;
9964;SDS011;5023;53.554;9.964;2023-04-25T15:22:38;6.83;;;2.50;;
9964;SDS011;5023;53.554;9.964;2023-04-25T15:27:44;7.40;;;2.70;;
9964;SDS011;5023;53.554;9.964;2023-04-25T15:32:53;7.00;;;2.73;;
9964;SDS011;5023;53.554;9.964;2023-04-25T15:37:55;6.93;;;2.47;;
9964;SDS011;5023;53.554;9.964;2023-04-25T15:42:57;5.63;;;2.30;;
9964;SDS011;5023;53.554;9.964;2023-04-25T15:48:01;8.03;;;2.30;;
9964;SDS011;5023;53.554;9.964;2023-04-25T15:53:03;4.00;;;2.30;;
9964;SDS011;5023;53.554;9.964;2023-04-25T15:58:05;5.13;;;2.43;;
9964;SDS011;5023;53.554;9.964;2023-04-25T16:03:08;5.67;;;1.80;;
9964;SDS011;5023;53.554;9.964;2023-04-25T16:08:10;3.53;;;1.80;;
9964;SDS011;5023;53.554;9.964;2023-04-25T16:13:12;5.57;;;2.33;;
9964;SDS011;5023;53.554;9.964;2023-04-25T16:18:15;4.50;;;1.60;;
9964;SDS011;5023;53.554;9.964;2023-04-25T16:23:17;5.40;;;2.50;;
9964;SDS011;5023;53.554;9.964;2023-04-25T16:28:19;3.37;;;2.03;;
9964;SDS011;5023;53.554;9.964;2023-04-25T16:33:22;3.47;;;1.80;;
9964;SDS011;5023;53.554;9.964;2023-04-25T16:38:27;2.77;;;1.90;;
9964;SDS011;5023;53.554;9.964;2023-04-25T16:43:31;5.50;;;1.63;;
9964;SDS011;5023;53.554;9.964;2023-04-25T16:48:34;5.23;;;1.60;;
9964;SDS011;5023;53.554;9.964;2023-04-25T16:53:36;4.83;;;1.77;;
9964;SDS011;5023;53.554;9.964;2023-04-25T16:58:41;3.87;;;1.90;;
9964;SDS011;5023;53.554;9.964;2023-04-25T17:03:45;4.40;;;1.80;;
9964;SDS011;5023;53.554;9.964;2023-04-25T17:08:48;4.47;;;1.70;;
9964;SDS011;5023;53.554;9.964;2023-04-25T17:13:50;4.77;;;2.47;;
9964;SDS011;5023;53.554;9.964;2023-04-25T17:18:53;7.43;;;3.87;;
9964;SDS011;5023;53.554;9.964;2023-04-25T17:23:57;4.67;;;2.13;;
9964;SDS011;5023;53.554;9.964;2023-04-25T17:28:59;3.23;;;2.10;;
9964;SDS011;5023;53.554;9.964;2023-04-25T17:34:02;3.27;;;1.87;;
9964;SDS011;5023;53.554;9.964;2023-04-25T17:39:05;9.53;;;3.53;;
9964;SDS011;5023;53.554;9.964;2023-04-25T17:44:07;4.80;;;2.63;;
9964;SDS011;5023;53.554;9.964;2023-04-25T17:49:11;4.23;;;2.17;;
9964;SDS011;5023;53.554;9.964;2023-04-25T17:54:15;7.87;;;2.20;;
9964;SDS011;5023;53.554;9.964;2023-04-25T17:59:21;5.20;;;2.10;;
9964;SDS011;5023;53.554;9.964;2023-04-25T18:04:24;5.03;;;1.97;;
9964;SDS011;5023;53.554;9.964;2023-04-25T18:09:26;4.57;;;1.80;;
9964;SDS011;5023;53.554;9.964;2023-04-25T18:14:31;6.37;;;2.40;;
9964;SDS011;5023;53.554;9.964;2023-04-25T18:19:35;4.50;;;2.00;;
9964;SDS011;5023;53.554;9.964;2023-04-25T18:24:37;6.60;;;1.93;;
9964;SDS011;5023;53.554;9.964;2023-04-25T18:29:39;7.63;;;4.30;;
9964;SDS011;5023;53.554;9.964;2023-04-25T18:34:45;8.07;;;4.13;;
9964;SDS011;5023;53.554;9.964;2023-04-25T18:39:49;6.60;;;2.37;;
9964;SDS011;5023;53.554;9.964;2023-04-25T18:44:51;3.90;;;2.00;;
9964;SDS011;5023;53.554;9.964;2023-04-25T18:49:54;6.93;;;2.70;;
9964;SDS011;5023;53.554;9.964;2023-04-25T18:54:56;5.30;;;2.43;;
9964;SDS011;5023;53.554;9.964;2023-04-25T18:59:58;9.70;;;2.43;;
9964;SDS011;5023;53.554;9.964;2023-04-25T19:05:06;7.83;;;2.40;;
9964;SDS011;5023;53.554;9.964;2023-04-25T19:10:09;9.87;;;3.03;;
9964;SDS011;5023;53.554;9.964;2023-04-25T19:15:11;10.07;;;3.77;;
9964;SDS011;5023;53.554;9.964;2023-04-25T19:20:15;4.83;;;2.23;;
9964;SDS011;5023;53.554;9.964;2023-04-25T19:25:19;9.23;;;2.43;;
9964;SDS011;5023;53.554;9.964;2023-04-25T19:30:23;4.70;;;2.17;;
9964;SDS011;5023;53.554;9.964;2023-04-25T19:35:27;5.07;;;2.20;;
9964;SDS011;5023;53.554;9.964;2023-04-25T19:40:31;6.77;;;2.40;;
9964;SDS011;5023;53.554;9.964;2023-04-25T19:45:33;8.17;;;2.30;;
9964;SDS011;5023;53.554;9.964;2023-04-25T19:50:37;4.53;;;2.27;;
9964;SDS011;5023;53.554;9.964;2023-04-25T19:55:39;8.40;;;2.87;;
9964;SDS011;5023;53.554;9.964;2023-04-25T20:00:41;8.97;;;2.37;;
9964;SDS011;5023;53.554;9.964;2023-04-25T20:05:44;6.87;;;3.00;;
9964;SDS011;5023;53.554;9.964;2023-04-25T20:10:46;5.40;;;2.13;;
9964;SDS011;5023;53.554;9.964;2023-04-25T20:15:48;8.97;;;2.90;;
9964;SDS011;5023;53.554;9.964;2023-04-25T20:20:53;5.90;;;2.70;;
9964;SDS011;5023;53.554;9.964;2023-04-25T20:25:55;8.73;;;2.43;;
9964;SDS011;5023;53.554;9.964;2023-04-25T20:30:57;9.03;;;2.20;;
9964;SDS011;5023;53.554;9.964;2023-04-25T20:36:01;7.87;;;2.10;;
9964;SDS011;5023;53.554;9.964;2023-04-25T20:41:03;5.77;;;2.10;;
9964;SDS011;5023;53.554;9.964;2023-04-25T20:46:05;5.03;;;2.30;;
9964;SDS011;5023;53.554;9.964;2023-04-25T20:51:09;5.50;;;2.13;;
9964;SDS011;5023;53.554;9.964;2023-04-25T20:56:11;5.27;;;2.40;;
9964;SDS011;5023;53.554;9.964;2023-04-25T21:01:13;5.87;;;2.17;;
9964;SDS011;5023;53.554;9.964;2023-04-25T21:06:17;8.43;;;2.03;;
9964;SDS011;5023;53.554;9.964;2023-04-25T21:11:20;8.10;;;2.30;;
9964;SDS011;5023;53.554;9.964;2023-04-25T21:16:22;11.17;;;5.47;;
9964;SDS011;5023;53.554;9.964;2023-04-25T21:21:25;5.90;;;1.60;;
9964;SDS011;5023;53.554;9.964;2023-04-25T21:26:28;6.60;;;2.00;;
9964;SDS011;5023;53.554;9.964;2023-04-25T21:31:30;7.73;;;1.90;;
9964;SDS011;5023;53.554;9.964;2023-04-25T21:36:33;4.43;;;2.40;;
9964;SDS011;5023;53.554;9.964;2023-04-25T21:41:35;6.60;;;2.30;;
9964;SDS011;5023;53.554;9.964;2023-04-25T21:46:37;9.23;;;2.70;;
9964;SDS011;5023;53.554;9.964;2023-04-25T21:51:41;7.87;;;2.50;;
9964;SDS011;5023;53.554;9.964;2023-04-25T21:56:43;4.40;;;2.07;;
9964;SDS011;5023;53.554;9.964;2023-04-25T22:01:45;5.73;;;2.03;;
9964;SDS011;5023;53.554;9.964;2023-04-25T22:06:49;12.57;;;8.50;;
9964;SDS011;5023;53.554;9.964;2023-04-25T22:11:51;5.33;;;1.60;;
9964;SDS011;5023;53.554;9.964;2023-04-25T22:16:54;4.77;;;1.63;;
9964;SDS011;5023;53.554;9.964;2023-04-25T22:21:57;3.37;;;1.80;;
9964;SDS011;5023;53.554;9.964;2023-04-25T22:26:59;3.80;;;2.17;;
9964;SDS011;5023;53.554;9.964;2023-04-25T22:32:01;5.87;;;1.93;;
9964;SDS011;5023;53.554;9.964;2023-04-25T22:37:05;4.97;;;2.10;;
9964;SDS011;5023;53.554;9.964;2023-04-25T22:42:06;11.47;;;4.17;;
9964;SDS011;5023;53.554;9.964;2023-04-25T22:47:09;6.13;;;2.33;;
9964;SDS011;5023;53.554;9.964;2023-04-25T22:52:12;9.03;;;3.60;;
9964;SDS011;5023;53.554;9.964;2023-04-25T22:57:14;8.00;;;2.23;;
9964;SDS011;5023;53.554;9.964;2023-04-25T23:02:17;5.30;;;1.93;;
9964;SDS011;5023;53.554;9.964;2023-04-25T23:07:20;6.57;;;2.57;;
9964;SDS011;5023;53.554;9.964;2023-04-25T23:12:23;8.40;;;2.33;;
9964;SDS011;5023;53.554;9.964;2023-04-25T23:17:25;5.70;;;2.20;;
9964;SDS011;5023;53.554;9.964;2023-04-25T23:22:28;5.90;;;2.63;;
9964;SDS011;5023;53.554;9.964;2023-04-25T23:27:30;5.83;;;2.07;;
9964;SDS011;5023;53.554;9.964;2023-04-25T23:32:36;6.30;;;2.17;;
9964;SDS011;5023;53.554;9.964;2023-04-25T23:37:39;6.77;;;2.60;;
9964;SDS011;5023;53.554;9.964;2023-04-25T23:42:41;9.07;;;2.50;;
9964;SDS011;5023;53.554;9.964;2023-04-25T23:47:43;5.00;;;2.63;;
9964;SDS011;5023;53.554;9.964;2023-04-25T23:52:47;4.37;;;2.03;;
9964;SDS011;5023;53.554;9.964;2023-04-25T23:57:48;8.73;;;4.37;;
